Hopetoun, Australia
Current Conditions -  °F | °C
As of 10:00 AM on Friday 21 Nov 2014 (Local Time) from YESP Reporting Station
Broken Clouds Broken Clouds  
Wind Chill: 72°   Ceiling: 4400
Heat Index: 72°   Visibility: 6mi
Dew Point: 55°   Wind: 17mph
Humidity: 57%   Direction: 230°SW
Pressure: 29.8"   Gusts: 29mph
Location:  33.95°S, 120.12°E
Report Text: YESP 210200Z AUTO 23015G25KT 9999 // SCT039 BKN044 BKN053 22/13 Q1009
Loading
Personal Weather Stations






























Interactive Weather Map New forecast layout! Learn more

10-Day Weather Forecast

Advertisements
Track Severe Weather on mobile